Time;durP1;ratioP1;P1;durP2;ratioP2;P2;SDS_P1;SDS_P2;PMS_P1;PMS_P2;Temp;Humidity;BMP_temperature;BMP_pressure;BME280_temperature;BME280_humidity;BME280_pressure;Samples;Min_cycle;Max_cycle;Signal;HPM_P1;HPM_P2
2023/07/28 00:00:45;;;;;;;5.40;4.90;;;;;;;13.39;68.87;99717.68;221578;1232;60458;-74
2023/07/28 00:05:37;;;;;;;8.00;4.90;;;;;;;13.40;69.14;99718.72;221871;1232;60544;-73
2023/07/28 00:10:28;;;;;;;5.60;5.10;;;;;;;13.40;69.19;99719.08;221679;1232;71493;-74
2023/07/28 00:15:20;;;;;;;8.00;4.80;;;;;;;13.40;69.38;99719.58;221563;1232;60524;-73
2023/07/28 00:20:12;;;;;;;5.50;4.90;;;;;;;13.40;69.52;99721.69;221813;1232;60921;-74
2023/07/28 00:25:03;;;;;;;5.10;4.70;;;;;;;13.42;69.74;99720.77;221851;1232;60409;-74
2023/07/28 00:29:55;;;;;;;5.70;4.50;;;;;;;13.44;69.72;99719.02;221773;1232;60554;-73
2023/07/28 00:34:47;;;;;;;6.10;4.50;;;;;;;13.47;69.99;99715.33;221734;1232;60606;-73
2023/07/28 00:39:39;;;;;;;7.10;4.60;;;;;;;13.53;70.14;99710.21;221773;1232;66840;-73
2023/07/28 00:44:30;;;;;;;5.30;3.90;;;;;;;13.55;70.16;99706.02;221790;1232;60503;-74
2023/07/28 00:49:22;;;;;;;5.40;4.20;;;;;;;13.55;70.20;99704.10;221804;1232;60467;-74
2023/07/28 00:54:14;;;;;;;4.70;4.30;;;;;;;13.54;70.50;99700.63;221820;1232;60547;-74
2023/07/28 00:59:06;;;;;;;6.60;4.60;;;;;;;13.57;70.52;99691.20;221662;1232;60548;-74
2023/07/28 01:03:58;;;;;;;6.00;5.10;;;;;;;13.56;70.63;99686.67;221812;1232;60401;-74
2023/07/28 01:09:01;;;;;;;5.20;4.80;;;;;;;13.60;70.72;99687.15;221757;1235;73990;-74
2023/07/28 01:13:53;;;;;;;4.90;4.50;;;;;;;13.59;70.79;99680.01;221763;1235;72808;-74
2023/07/28 01:18:44;;;;;;;6.20;5.50;;;;;;;13.60;71.00;99682.27;221698;1232;60431;-74
2023/07/28 01:23:51;;;;;;;6.00;4.60;;;;;;;13.62;71.26;99671.80;221680;1232;60621;-74
2023/07/28 01:28:44;;;;;;;8.10;5.50;;;;;;;13.61;71.33;99667.64;221780;1232;60925;-74
2023/07/28 01:33:36;;;;;;;5.40;4.60;;;;;;;13.62;71.53;99660.50;221781;1232;66035;-74
2023/07/28 01:38:28;;;;;;;5.80;5.20;;;;;;;13.64;71.44;99649.49;221782;1232;60429;-74
2023/07/28 01:43:20;;;;;;;5.30;4.80;;;;;;;13.65;71.55;99647.23;221941;1232;60538;-74
2023/07/28 01:48:12;;;;;;;5.20;4.70;;;;;;;13.67;71.61;99643.88;221744;1235;60474;-74
2023/07/28 01:53:05;;;;;;;6.50;5.90;;;;;;;13.65;71.54;99642.52;221773;1236;73396;-74
2023/07/28 01:58:00;;;;;;;5.50;4.80;;;;;;;13.62;71.75;99643.43;221681;1236;72905;-74
2023/07/28 02:02:52;;;;;;;8.20;5.50;;;;;;;13.63;71.88;99637.49;221717;1232;61034;-74
2023/07/28 02:07:44;;;;;;;7.50;5.00;;;;;;;13.65;71.91;99634.67;221655;1236;60521;-74
2023/07/28 02:12:35;;;;;;;5.40;4.70;;;;;;;13.65;72.06;99638.52;221863;1232;60483;-74
2023/07/28 02:17:27;;;;;;;4.90;4.50;;;;;;;13.66;72.12;99643.89;221757;1232;60422;-74
2023/07/28 02:22:18;;;;;;;5.30;4.90;;;;;;;13.69;72.16;99641.94;221908;1235;60436;-74
2023/07/28 02:27:10;;;;;;;5.30;4.50;;;;;;;13.71;72.17;99636.69;221721;1235;60533;-74
2023/07/28 02:32:01;;;;;;;5.50;5.00;;;;;;;13.73;72.13;99633.02;221774;1232;60423;-74
2023/07/28 02:36:53;;;;;;;5.00;4.60;;;;;;;13.75;72.18;99626.89;221798;1236;73561;-74
2023/07/28 02:41:44;;;;;;;5.70;4.70;;;;;;;13.78;72.34;99627.91;221349;1232;60552;-73
2023/07/28 02:46:36;;;;;;;7.90;5.30;;;;;;;13.77;72.42;99618.34;221760;1235;60541;-73
2023/07/28 02:51:29;;;;;;;7.20;5.20;;;;;;;13.78;72.46;99612.93;221833;1232;71287;-74
2023/07/28 02:56:21;;;;;;;6.00;5.40;;;;;;;13.80;72.75;99613.59;221699;1235;60536;-73
2023/07/28 03:01:13;;;;;;;5.10;4.50;;;;;;;13.83;72.70;99622.45;221671;1232;60561;-74
2023/07/28 03:06:05;;;;;;;5.60;5.00;;;;;;;13.86;72.83;99624.66;221752;1232;61084;-74
2023/07/28 03:10:59;;;;;;;6.10;5.50;;;;;;;13.85;72.93;99629.02;221800;1232;65688;-74
2023/07/28 03:15:50;;;;;;;5.30;4.80;;;;;;;13.88;73.21;99618.53;221902;1232;60595;-74
2023/07/28 03:20:43;;;;;;;5.70;5.20;;;;;;;13.91;73.26;99604.55;221717;1232;60502;-74
2023/07/28 03:25:35;;;;;;;5.90;5.00;;;;;;;13.92;73.54;99609.95;221806;1237;60500;-74
2023/07/28 03:30:26;;;;;;;6.10;5.50;;;;;;;13.91;73.75;99603.68;221594;1232;60459;-74
2023/07/28 03:35:18;;;;;;;6.90;6.00;;;;;;;13.93;73.88;99610.63;221778;1232;71238;-73
2023/07/28 03:40:15;;;;;;;9.30;5.90;;;;;;;13.97;73.92;99605.69;221830;1232;60416;-74
2023/07/28 03:45:13;;;;;;;6.10;5.20;;;;;;;14.00;73.94;99592.91;221822;1232;65718;-74
2023/07/28 03:50:05;;;;;;;6.50;5.80;;;;;;;14.05;73.94;99592.16;221857;1232;60437;-73
2023/07/28 03:54:57;;;;;;;7.40;6.00;;;;;;;14.08;74.03;99594.89;221728;1232;60430;-73
2023/07/28 03:59:48;;;;;;;7.20;6.50;;;;;;;14.13;74.08;99590.11;221665;1232;60364;-74
2023/07/28 04:04:40;;;;;;;6.60;6.00;;;;;;;14.19;74.15;99590.73;221742;1236;60442;-73
2023/07/28 04:09:31;;;;;;;6.70;6.10;;;;;;;14.26;74.03;99586.08;221849;1232;60494;-73
2023/07/28 04:14:23;;;;;;;7.00;5.80;;;;;;;14.40;73.79;99581.48;221805;1232;73621;-74
2023/07/28 04:19:14;;;;;;;7.00;5.60;;;;;;;14.53;73.82;99578.82;221730;1232;60571;-74
2023/07/28 04:24:10;;;;;;;6.50;5.90;;;;;;;14.62;73.75;99575.55;221718;1232;60542;-73
2023/07/28 04:29:05;;;;;;;6.40;5.70;;;;;;;14.69;73.51;99575.09;221681;1236;72712;-73
2023/07/28 04:33:57;;;;;;;6.70;5.60;;;;;;;14.77;73.40;99571.11;221646;1232;60500;-74
2023/07/28 04:38:49;;;;;;;7.40;5.70;;;;;;;14.83;73.41;99573.09;221840;1231;61137;-74
2023/07/28 04:43:41;;;;;;;6.70;5.60;;;;;;;14.88;72.96;99560.80;221855;1232;60412;-73
2023/07/28 04:48:32;;;;;;;6.50;5.90;;;;;;;14.95;72.89;99560.13;221799;1232;66899;-74
2023/07/28 04:53:24;;;;;;;5.70;5.20;;;;;;;15.03;72.53;99552.98;221642;1232;151539;-74
2023/07/28 04:58:22;;;;;;;7.00;5.30;;;;;;;15.13;72.47;99551.56;221809;1232;72974;-74
2023/07/28 05:03:15;;;;;;;6.10;5.30;;;;;;;15.18;72.12;99546.23;221676;1232;72405;-74
2023/07/28 05:08:13;;;;;;;7.30;5.20;;;;;;;15.28;71.81;99544.80;221657;1232;60436;-74
2023/07/28 05:13:04;;;;;;;7.30;5.40;;;;;;;15.40;71.46;99548.91;221714;1232;60459;-74
2023/07/28 05:17:56;;;;;;;5.10;4.70;;;;;;;15.50;71.22;99548.52;221663;1235;60416;-74
2023/07/28 05:23:12;;;;;;;6.10;5.10;;;;;;;15.59;70.95;99544.84;221803;1232;66115;-74
2023/07/28 05:28:04;;;;;;;5.70;4.30;;;;;;;15.68;71.03;99539.04;221715;1232;60445;-74
2023/07/28 05:32:56;;;;;;;10.90;4.70;;;;;;;15.75;70.93;99531.55;221645;1232;60433;-74
2023/07/28 05:37:57;;;;;;;5.10;4.30;;;;;;;15.81;70.29;99527.42;221815;1232;72476;-73
2023/07/28 05:42:49;;;;;;;5.20;4.30;;;;;;;15.93;70.30;99522.07;221717;1234;60458;-73
2023/07/28 05:47:41;;;;;;;4.30;3.90;;;;;;;16.01;69.80;99526.77;221840;1232;60512;-74
2023/07/28 05:52:32;;;;;;;5.70;4.40;;;;;;;16.14;69.81;99517.52;221775;1232;60533;-74
2023/07/28 05:57:24;;;;;;;11.20;4.30;;;;;;;16.30;69.73;99516.95;221821;1232;60424;-74
2023/07/28 06:02:16;;;;;;;5.40;4.60;;;;;;;16.45;69.35;99518.49;221703;1232;60561;-73
2023/07/28 06:07:14;;;;;;;6.80;4.60;;;;;;;16.58;69.13;99521.80;221826;1237;74349;-73
2023/07/28 06:12:07;;;;;;;4.50;4.10;;;;;;;16.70;68.91;99523.61;221566;1232;60526;-74
2023/07/28 06:16:59;;;;;;;7.10;6.00;;;;;;;16.81;68.77;99523.67;221558;1232;60420;-74
2023/07/28 06:21:54;;;;;;;6.90;4.30;;;;;;;16.89;68.43;99524.51;221554;1232;66935;-75
2023/07/28 06:26:46;;;;;;;6.20;4.50;;;;;;;16.96;68.55;99521.52;221355;1232;60529;-74
2023/07/28 06:31:37;;;;;;;5.50;4.20;;;;;;;17.01;68.38;99522.25;221649;1234;60430;-74
2023/07/28 06:36:29;;;;;;;5.00;3.90;;;;;;;17.11;68.09;99523.88;221771;1232;60531;-74
2023/07/28 06:41:23;;;;;;;4.40;3.90;;;;;;;17.25;68.01;99519.80;221708;1234;72760;-74
2023/07/28 06:46:22;;;;;;;6.40;4.30;;;;;;;17.39;67.51;99521.67;221804;1232;70856;-74
2023/07/28 06:51:13;;;;;;;4.20;3.40;;;;;;;17.46;67.33;99523.92;221596;1232;60539;-74
2023/07/28 06:56:06;;;;;;;5.10;3.80;;;;;;;17.49;67.24;99529.94;221765;1232;60419;-74
2023/07/28 07:00:58;;;;;;;4.50;4.10;;;;;;;17.52;67.06;99528.09;221596;1235;60521;-74
2023/07/28 07:05:49;;;;;;;3.90;3.50;;;;;;;17.61;66.85;99526.64;221629;1232;60435;-74
2023/07/28 07:10:47;;;;;;;5.10;3.90;;;;;;;17.70;66.78;99516.52;221827;1232;60522;-74
2023/07/28 07:15:40;;;;;;;5.80;3.50;;;;;;;17.78;66.99;99507.69;221814;1234;72300;-74
2023/07/28 07:20:35;;;;;;;4.10;3.70;;;;;;;17.81;67.14;99498.29;221736;1232;60413;-74
2023/07/28 07:25:27;;;;;;;5.40;3.90;;;;;;;17.77;67.16;99507.35;221535;1236;60429;-73
2023/07/28 07:30:19;;;;;;;5.20;4.70;;;;;;;17.68;67.50;99515.70;221416;1232;60415;-73
2023/07/28 07:35:12;;;;;;;4.60;4.10;;;;;;;17.61;68.17;99519.96;221747;1232;60452;-74
2023/07/28 07:40:07;;;;;;;5.20;4.20;;;;;;;17.44;68.82;99529.40;221496;1234;60467;-74
2023/07/28 07:44:58;;;;;;;6.00;4.40;;;;;;;17.28;69.61;99530.23;221681;1232;72927;-73
2023/07/28 07:49:50;;;;;;;5.10;4.50;;;;;;;17.18;70.29;99529.82;221678;1232;60997;-73
2023/07/28 07:54:41;;;;;;;5.90;4.40;;;;;;;17.08;70.69;99533.09;221670;1232;60632;-72
2023/07/28 07:59:33;;;;;;;4.20;3.80;;;;;;;16.96;70.92;99526.94;221641;1232;60409;-72
2023/07/28 08:04:28;;;;;;;5.10;3.90;;;;;;;16.86;71.46;99529.66;221489;1232;64512;-71
2023/07/28 08:09:19;;;;;;;5.20;4.60;;;;;;;16.78;71.97;99529.16;221686;1232;60921;-72
2023/07/28 08:14:11;;;;;;;5.50;5.00;;;;;;;16.80;72.22;99525.08;221681;1232;60397;-73
2023/07/28 08:19:02;;;;;;;5.60;5.10;;;;;;;17.07;72.45;99528.91;221633;1232;60458;-73
2023/07/28 08:23:54;;;;;;;5.40;4.90;;;;;;;17.14;72.40;99528.34;221555;1232;60470;-72
2023/07/28 08:28:45;;;;;;;7.20;5.30;;;;;;;17.12;72.46;99528.23;221610;1235;59334;-73
2023/07/28 08:33:37;;;;;;;4.70;4.30;;;;;;;17.18;72.72;99525.98;221626;1235;74323;-73
2023/07/28 08:38:28;;;;;;;5.10;4.60;;;;;;;17.28;73.20;99526.20;221609;1232;60456;-73
2023/07/28 08:43:20;;;;;;;5.80;5.20;;;;;;;17.48;73.34;99513.68;221717;1231;60439;-73
2023/07/28 08:48:11;;;;;;;5.90;5.30;;;;;;;17.69;73.25;99506.89;221686;1234;72500;-73
2023/07/28 08:53:03;;;;;;;5.20;4.70;;;;;;;18.00;72.93;99503.14;221639;1232;60544;-74
2023/07/28 08:57:55;;;;;;;4.60;4.20;;;;;;;18.08;72.84;99507.63;221549;1232;60452;-72
2023/07/28 09:02:49;;;;;;;5.00;3.70;;;;;;;18.08;72.76;99511.30;221590;1235;60801;-72
2023/07/28 09:07:43;;;;;;;5.00;4.40;;;;;;;18.11;72.40;99507.70;221606;1236;65406;-72
2023/07/28 09:12:34;;;;;;;5.30;4.30;;;;;;;17.98;72.47;99507.05;221606;1232;60413;-70
2023/07/28 09:17:26;;;;;;;4.60;4.10;;;;;;;18.05;72.90;99498.41;221605;1232;60542;-70
2023/07/28 09:22:18;;;;;;;6.50;4.40;;;;;;;18.28;72.60;99494.30;221631;1235;60468;-71
2023/07/28 09:27:20;;;;;;;5.00;4.50;;;;;;;18.44;72.39;99493.61;221622;1232;73719;-71
2023/07/28 09:32:13;;;;;;;5.50;4.40;;;;;;;18.50;72.32;99487.08;221487;1232;72907;-73
2023/07/28 09:37:05;;;;;;;4.80;3.80;;;;;;;18.55;72.36;99494.80;221649;1232;60455;-73
2023/07/28 09:41:59;;;;;;;4.60;4.10;;;;;;;18.53;72.40;99492.77;221710;1235;60544;-70
2023/07/28 09:46:55;;;;;;;5.50;4.20;;;;;;;18.68;72.50;99486.77;221604;1235;60436;-71
2023/07/28 09:51:49;;;;;;;4.80;4.30;;;;;;;18.82;72.13;99488.92;221639;1232;73671;-73
2023/07/28 09:56:42;;;;;;;6.70;4.80;;;;;;;18.83;72.00;99487.34;221789;1232;72399;-73
2023/07/28 10:01:34;;;;;;;4.70;4.30;;;;;;;18.81;72.05;99479.48;221461;1234;60449;-73
2023/07/28 10:06:27;;;;;;;6.00;4.20;;;;;;;18.95;71.76;99477.06;221743;1232;60439;-73
2023/07/28 10:11:19;;;;;;;4.80;4.40;;;;;;;18.92;71.93;99474.38;221616;1232;60528;-73
2023/07/28 10:16:10;;;;;;;6.60;4.60;;;;;;;18.82;71.88;99465.74;221593;1235;60435;-73
2023/07/28 10:21:17;;;;;;;6.10;4.60;;;;;;;19.00;71.54;99463.86;221647;1236;60429;-74
2023/07/28 10:26:09;;;;;;;4.70;4.10;;;;;;;19.14;71.17;99463.72;221369;1234;73755;-73
2023/07/28 10:31:02;;;;;;;5.80;4.40;;;;;;;19.12;70.86;99463.63;221429;1232;60683;-73
2023/07/28 10:35:54;;;;;;;6.70;5.20;;;;;;;19.01;70.90;99460.68;221666;1233;60428;-73
2023/07/28 10:40:46;;;;;;;8.10;4.60;;;;;;;19.06;71.08;99458.39;221628;1234;60500;-73
2023/07/28 10:45:37;;;;;;;5.00;4.10;;;;;;;19.35;70.80;99444.79;221502;1234;60413;-73
2023/07/28 10:50:31;;;;;;;5.20;4.30;;;;;;;19.53;70.64;99440.23;221417;1233;66824;-74
2023/07/28 10:55:25;;;;;;;6.70;4.80;;;;;;;19.48;70.58;99436.04;221458;1232;60449;-73
2023/07/28 11:00:19;;;;;;;5.30;4.60;;;;;;;19.37;70.41;99436.48;221762;1236;72355;-72
2023/07/28 11:05:12;;;;;;;4.10;3.70;;;;;;;19.22;70.54;99438.63;221682;1234;71033;-73
2023/07/28 11:10:06;;;;;;;5.20;4.50;;;;;;;19.16;70.77;99441.33;221478;1232;60523;-70
2023/07/28 11:14:58;;;;;;;4.40;4.00;;;;;;;19.31;70.61;99427.90;221653;1232;64942;-72
2023/07/28 11:19:50;;;;;;;6.90;4.20;;;;;;;19.65;70.57;99422.67;221707;1232;60315;-72
2023/07/28 11:24:41;;;;;;;4.40;4.00;;;;;;;19.78;70.23;99430.06;221732;1234;60519;-73
2023/07/28 11:29:33;;;;;;;4.50;3.90;;;;;;;19.68;70.15;99428.35;221728;1234;60426;-73
2023/07/28 11:34:25;;;;;;;5.90;5.00;;;;;;;19.57;70.30;99429.52;221735;1232;60526;-73
2023/07/28 11:39:17;;;;;;;5.60;4.20;;;;;;;19.57;70.39;99430.55;221700;1234;60532;-72
2023/07/28 11:44:08;;;;;;;4.10;3.70;;;;;;;20.21;69.96;99429.31;221931;1232;73647;-72
2023/07/28 11:49:21;;;;;;;4.90;4.10;;;;;;;20.95;68.98;99416.75;221758;1232;73071;-72
2023/07/28 11:54:14;;;;;;;5.10;4.10;;;;;;;21.07;68.48;99414.42;221729;1232;60419;-73
2023/07/28 11:59:06;;;;;;;5.30;3.40;;;;;;;21.88;67.76;99408.91;221697;1232;64762;-72
2023/07/28 12:04:00;;;;;;;4.90;4.40;;;;;;;22.32;66.86;99412.34;221634;1234;60400;-72
2023/07/28 12:08:52;;;;;;;4.50;3.90;;;;;;;21.96;66.20;99412.42;221785;1232;60541;-73
2023/07/28 12:13:51;;;;;;;4.30;3.50;;;;;;;22.41;65.88;99402.66;221626;1236;60878;-73
2023/07/28 12:18:46;;;;;;;4.70;3.60;;;;;;;22.67;64.32;99399.17;221720;1232;60493;-73
2023/07/28 12:23:40;;;;;;;3.40;3.20;;;;;;;22.92;64.28;99390.94;221793;1232;65899;-73
2023/07/28 12:28:35;;;;;;;4.40;3.20;;;;;;;23.74;64.45;99389.37;221750;1232;60614;-72
2023/07/28 12:33:46;;;;;;;4.50;3.20;;;;;;;24.13;62.08;99392.56;221485;1232;73840;-73
2023/07/28 12:38:41;;;;;;;5.10;3.70;;;;;;;23.97;61.83;99392.27;221690;1235;72530;-74
2023/07/28 12:43:39;;;;;;;3.10;2.90;;;;;;;23.62;61.82;99400.31;221485;1237;60519;-74
2023/07/28 12:48:35;;;;;;;4.00;2.90;;;;;;;23.30;61.37;99401.25;221672;1234;67271;-74
2023/07/28 12:53:59;;;;;;;3.30;3.00;;;;;;;23.47;61.51;99400.84;221775;1233;60449;-74
2023/07/28 12:58:50;;;;;;;4.90;2.90;;;;;;;24.10;60.87;99406.70;221726;1234;74868;-74
2023/07/28 13:03:45;;;;;;;3.10;2.80;;;;;;;23.48;60.01;99413.82;221806;1234;72510;-73
2023/07/28 13:08:36;;;;;;;2.70;2.50;;;;;;;22.76;60.82;99427.84;221786;1235;60238;-73
2023/07/28 13:13:34;;;;;;;2.00;1.80;;;;;;;22.43;61.64;99426.41;221728;1232;67101;-74
2023/07/28 13:18:34;;;;;;;2.40;2.20;;;;;;;22.14;62.58;99426.47;221793;1232;60838;-73
2023/07/28 13:23:25;;;;;;;3.10;1.70;;;;;;;21.86;63.17;99424.19;221671;1232;60541;-73
2023/07/28 13:28:18;;;;;;;1.70;1.60;;;;;;;21.63;63.26;99427.83;221912;1234;60391;-72
2023/07/28 13:33:10;;;;;;;2.20;1.60;;;;;;;21.47;63.59;99428.02;221749;1232;74478;-72
2023/07/28 13:38:07;;;;;;;1.50;1.40;;;;;;;21.42;63.77;99436.21;221794;1236;60514;-72
2023/07/28 13:43:10;;;;;;;2.30;1.40;;;;;;;21.55;63.46;99438.40;221935;1234;60432;-72
2023/07/28 13:48:08;;;;;;;2.20;1.70;;;;;;;21.74;63.21;99437.17;221821;1232;64645;-72
2023/07/28 13:53:15;;;;;;;1.30;1.20;;;;;;;21.60;63.41;99443.64;221694;1234;60516;-72
2023/07/28 13:58:21;;;;;;;1.60;1.30;;;;;;;21.38;63.77;99444.31;221623;1237;74066;-75
2023/07/28 14:03:16;;;;;;;2.00;1.30;;;;;;;21.26;63.86;99439.95;221517;1233;72531;-73
2023/07/28 14:08:14;;;;;;;1.00;1.00;;;;;;;21.57;64.33;99427.92;221542;1234;60516;-72
2023/07/28 14:13:05;;;;;;;1.00;1.00;;;;;;;22.01;63.83;99421.86;221681;1237;66942;-73
2023/07/28 14:17:57;;;;;;;1.50;1.40;;;;;;;22.20;63.70;99429.73;221650;1234;60413;-72
2023/07/28 14:22:48;;;;;;;1.30;1.20;;;;;;;22.26;63.63;99431.02;221708;1236;60749;-72
2023/07/28 14:27:40;;;;;;;1.70;1.60;;;;;;;22.09;63.60;99427.96;221735;1232;60474;-72
2023/07/28 14:32:31;;;;;;;1.40;1.30;;;;;;;21.91;63.72;99421.82;221716;1232;60439;-72
2023/07/28 14:37:23;;;;;;;1.80;1.70;;;;;;;21.71;63.96;99421.61;221594;1237;60471;-72
2023/07/28 14:42:14;;;;;;;1.50;1.40;;;;;;;21.57;64.24;99411.01;221639;1236;72520;-72
2023/07/28 14:47:25;;;;;;;;;;;;;;;;;;;;;
2023/07/28 14:53:23;;;;;;;1.30;1.20;;;;;;;21.59;64.61;99409.49;221024;1238;60360;-74
2023/07/28 15:04:41;;;;;;;1.50;1.40;;;;;;;21.29;65.13;99406.14;221629;1232;60432;-73
2023/07/28 15:09:33;;;;;;;1.30;1.20;;;;;;;21.15;65.61;99409.61;221668;1236;74358;-75
2023/07/28 15:14:24;;;;;;;2.10;1.10;;;;;;;21.01;65.90;99407.66;221582;1236;60548;-72
2023/07/28 15:19:16;;;;;;;2.20;1.20;;;;;;;20.86;66.26;99417.86;221599;1232;60497;-72
2023/07/28 15:24:07;;;;;;;3.40;1.30;;;;;;;20.72;66.71;99423.94;221747;1232;72407;-73
2023/07/28 15:35:07;;;;;;;1.20;1.10;;;;;;;20.46;68.40;99432.66;219968;1244;67877;-72
2023/07/28 15:39:59;;;;;;;2.00;1.70;;;;;;;20.29;69.17;99430.02;219985;1239;60636;-72
2023/07/28 15:44:54;;;;;;;1.60;1.50;;;;;;;20.13;69.77;99439.00;219908;1239;60442;-72
2023/07/28 15:49:55;;;;;;;2.50;1.70;;;;;;;19.97;70.68;99447.80;220189;1243;71762;-72
2023/07/28 15:54:46;;;;;;;2.10;1.90;;;;;;;19.82;71.43;99436.96;220154;1243;60447;-72
2023/07/28 15:59:38;;;;;;;3.70;2.30;;;;;;;19.69;72.36;99427.27;220236;1243;60940;-70
2023/07/28 16:04:30;;;;;;;4.20;2.00;;;;;;;19.59;73.08;99438.23;220206;1241;60461;-72
2023/07/28 16:09:22;;;;;;;1.90;1.80;;;;;;;19.51;73.57;99445.92;220586;1232;60431;-71
2023/07/28 16:14:14;;;;;;;2.00;1.80;;;;;;;19.44;73.90;99435.14;221847;1236;60452;-71
2023/07/28 16:19:06;;;;;;;2.00;1.90;;;;;;;19.37;74.66;99444.36;221847;1232;60541;-72
2023/07/28 16:23:58;;;;;;;2.40;2.20;;;;;;;19.29;74.89;99444.52;221813;1232;60458;-72
2023/07/28 16:28:49;;;;;;;3.30;2.20;;;;;;;19.20;75.08;99447.32;221829;1232;60839;-72
2023/07/28 16:33:41;;;;;;;2.80;2.00;;;;;;;19.12;75.12;99459.73;221844;1236;60427;-71
2023/07/28 16:38:33;;;;;;;1.80;1.70;;;;;;;19.14;75.30;99454.22;221816;1232;73659;-72
2023/07/28 16:43:25;;;;;;;1.80;1.70;;;;;;;19.25;75.36;99456.80;221884;1232;60419;-72
2023/07/28 16:48:16;;;;;;;1.70;1.50;;;;;;;19.31;75.46;99455.12;221763;1232;60512;-72
2023/07/28 16:53:08;;;;;;;1.90;1.50;;;;;;;19.37;75.23;99455.95;221693;1232;168415;-72
2023/07/28 16:58:00;;;;;;;1.70;1.60;;;;;;;19.37;75.01;99462.11;221789;1232;61027;-72
2023/07/28 17:02:51;;;;;;;1.20;1.10;;;;;;;19.28;74.98;99471.76;221833;1232;60457;-72
2023/07/28 17:07:43;;;;;;;1.10;1.10;;;;;;;19.22;75.05;99473.91;221855;1236;60429;-72
2023/07/28 17:12:35;;;;;;;1.50;1.10;;;;;;;19.19;75.29;99478.25;221801;1232;60544;-72
2023/07/28 17:17:26;;;;;;;1.30;1.20;;;;;;;19.12;75.26;99480.45;221846;1232;60429;-72
2023/07/28 17:22:18;;;;;;;1.10;1.10;;;;;;;19.03;75.57;99475.00;221830;1232;66826;-73
2023/07/28 17:27:10;;;;;;;1.40;1.20;;;;;;;18.96;75.80;99482.45;221681;1237;59545;-73
2023/07/28 17:32:01;;;;;;;3.20;1.80;;;;;;;18.91;76.00;99476.30;221822;1232;60432;-73
2023/07/28 17:36:52;;;;;;;1.50;1.40;;;;;;;18.98;76.23;99479.94;221832;1236;60471;-73
2023/07/28 17:41:44;;;;;;;4.70;1.40;;;;;;;19.08;76.29;99482.74;221729;1232;60416;-73
2023/07/28 17:46:36;;;;;;;1.70;1.60;;;;;;;19.15;76.43;99472.27;221817;1232;60459;-72
2023/07/28 17:51:28;;;;;;;1.70;1.30;;;;;;;19.16;76.58;99471.16;221853;1232;73704;-72
2023/07/28 17:56:20;;;;;;;1.70;1.40;;;;;;;19.06;76.79;99477.34;221776;1232;60423;-72
2023/07/28 18:01:11;;;;;;;2.40;1.20;;;;;;;18.90;76.92;99485.83;221832;1232;60541;-72
2023/07/28 18:06:03;;;;;;;2.00;1.70;;;;;;;18.74;77.24;99493.08;221844;1238;60432;-73
2023/07/28 18:10:54;;;;;;;2.50;1.50;;;;;;;18.59;77.47;99501.51;221640;1231;60674;-72
2023/07/28 18:15:46;;;;;;;1.90;1.60;;;;;;;18.45;77.61;99503.55;221627;1232;60876;-72
2023/07/28 18:20:38;;;;;;;2.00;1.90;;;;;;;18.34;77.87;99507.09;221853;1232;60436;-72
2023/07/28 18:25:29;;;;;;;1.90;1.60;;;;;;;18.27;78.15;99509.95;221608;1232;67130;-72
2023/07/28 18:30:22;;;;;;;2.20;2.00;;;;;;;18.22;78.40;99508.20;221640;1232;60324;-72
2023/07/28 18:35:14;;;;;;;2.40;2.20;;;;;;;18.17;78.69;99510.31;221858;1232;60549;-72
2023/07/28 18:40:07;;;;;;;2.60;1.80;;;;;;;18.11;78.85;99518.23;221882;1232;60449;-72
2023/07/28 18:51:20;;;;;;;3.40;1.90;;;;;;;18.01;79.26;99528.02;219510;1244;68223;-72
2023/07/28 19:03:10;;;;;;;2.90;2.20;;;;;;;17.87;79.44;99543.17;217650;1256;72890;-72
2023/07/28 20:08:18;;;;;;;2.80;2.60;;;;;;;16.83;79.54;99591.85;219140;1246;75295;-72
2023/07/28 20:13:09;;;;;;;3.50;2.80;;;;;;;16.80;79.93;99598.38;219229;1246;60603;-72
2023/07/28 20:18:01;;;;;;;2.50;2.20;;;;;;;16.76;80.02;99598.14;219328;1246;60455;-71
2023/07/28 20:22:56;;;;;;;2.80;2.50;;;;;;;16.71;79.90;99601.79;219276;1246;70889;-72
2023/07/28 20:27:48;;;;;;;2.80;2.60;;;;;;;16.64;79.94;99600.21;219225;1246;60922;-72
2023/07/28 20:32:40;;;;;;;2.70;2.30;;;;;;;16.59;80.26;99599.65;219173;1251;60678;-72
2023/07/28 20:42:46;;;;;;;2.70;2.50;;;;;;;16.46;80.03;99601.36;221437;1232;74818;-72
2023/07/28 20:47:38;;;;;;;3.40;2.60;;;;;;;16.42;80.24;99607.42;221765;1232;61029;-72
2023/07/28 20:52:30;;;;;;;3.00;2.60;;;;;;;16.37;80.12;99612.24;221766;1232;60388;-74
2023/07/28 20:57:21;;;;;;;3.40;2.70;;;;;;;16.32;80.14;99618.50;221793;1232;71368;-71
2023/07/28 21:02:23;;;;;;;3.10;2.90;;;;;;;16.27;80.04;99618.27;221552;1233;60514;-71
2023/07/28 21:07:15;;;;;;;3.20;3.00;;;;;;;16.24;80.28;99624.46;221800;1234;68175;-71
2023/07/28 21:12:07;;;;;;;3.40;3.10;;;;;;;16.19;80.24;99627.38;221736;1235;60445;-71
2023/07/28 21:17:12;;;;;;;4.80;3.20;;;;;;;16.14;80.24;99639.89;221546;1232;60412;-71
2023/07/28 21:42:20;;;;;;;3.50;3.20;;;;;;;16.12;80.90;99661.81;218699;1249;60660;-73
2023/07/28 21:54:08;;;;;;;4.20;3.80;;;;;;;16.16;81.60;99659.09;216379;1257;60598;-72
2023/07/28 21:59:09;;;;;;;4.00;3.70;;;;;;;16.14;81.50;99659.48;217148;1251;72796;-73
2023/07/28 22:04:01;;;;;;;4.30;4.00;;;;;;;16.16;82.08;99671.33;217653;1251;62117;-72
2023/07/28 22:08:52;;;;;;;4.40;4.00;;;;;;;16.22;82.38;99675.05;218404;1252;60317;-73
2023/07/28 22:13:44;;;;;;;4.00;3.60;;;;;;;16.27;82.62;99681.73;219461;1248;72477;-72
2023/07/28 22:18:36;;;;;;;4.50;4.10;;;;;;;16.29;82.43;99679.23;219481;1246;60639;-73
2023/07/28 22:23:29;;;;;;;5.70;5.20;;;;;;;16.27;82.45;99680.16;219560;1248;60760;-73
2023/07/28 22:28:21;;;;;;;5.40;4.30;;;;;;;16.25;82.60;99676.52;220688;1232;60502;-73
2023/07/28 22:33:13;;;;;;;5.20;4.60;;;;;;;16.23;82.58;99680.42;221985;1232;60520;-72
2023/07/28 22:38:04;;;;;;;5.00;4.50;;;;;;;16.20;82.76;99685.39;221908;1232;60397;-72
2023/07/28 22:42:57;;;;;;;4.80;4.40;;;;;;;16.17;82.84;99688.61;221733;1237;60485;-72
2023/07/28 22:47:48;;;;;;;4.80;3.90;;;;;;;16.11;82.76;99692.41;221969;1235;60505;-72
2023/07/28 22:52:40;;;;;;;5.10;4.50;;;;;;;16.05;82.70;99693.42;221960;1232;60513;-72
2023/07/28 22:57:31;;;;;;;5.20;4.80;;;;;;;15.99;82.95;99703.48;221721;1232;72329;-72
2023/07/28 23:02:23;;;;;;;6.80;4.50;;;;;;;15.96;82.88;99711.62;221785;1232;60551;-72
2023/07/28 23:07:16;;;;;;;5.00;4.50;;;;;;;15.92;82.82;99715.52;221738;1232;60557;-73
2023/07/28 23:12:08;;;;;;;4.60;4.20;;;;;;;15.86;82.68;99713.58;221580;1235;60389;-72
2023/07/28 23:17:00;;;;;;;4.90;4.40;;;;;;;15.81;82.74;99719.95;221818;1232;60452;-72
2023/07/28 23:21:51;;;;;;;6.10;4.80;;;;;;;15.80;82.80;99720.70;221618;1232;60561;-73
2023/07/28 23:26:43;;;;;;;4.70;4.30;;;;;;;15.77;82.97;99720.56;221678;1232;66256;-72
2023/07/28 23:31:34;;;;;;;5.20;4.70;;;;;;;15.78;83.26;99717.23;221906;1232;60423;-73
2023/07/28 23:36:26;;;;;;;4.20;3.90;;;;;;;15.79;83.26;99717.71;221829;1236;60512;-73
2023/07/28 23:41:17;;;;;;;6.20;4.50;;;;;;;15.80;83.26;99721.90;221798;1232;60438;-73
2023/07/28 23:46:09;;;;;;;4.90;4.40;;;;;;;15.78;83.35;99727.54;221666;1232;60621;-73
2023/07/28 23:51:02;;;;;;;5.00;4.50;;;;;;;15.75;83.21;99728.81;221770;1232;60448;-72
2023/07/28 23:55:53;;;;;;;4.40;4.00;;;;;;;15.74;83.35;99729.52;221719;1237;60868;-72
